logo
Search for airport 
image banner adimage banner adimage banner ad
image banner ad

EHQW - Hollandse Kust West Alpha / Hkwa (Converter Platform)

Located in , Netherlands

ICAO - , IATA -

Data provided by Airmate  

General information

Coordinates: N52°40'47" E3°48'17"
Elevation is feet MSL.
 
View others Airports in Noord-Holland

Operational data

Special qualification required
Current time UTC:
Current local time:
METAR: EHPG 130255Z AUTO 31015KT 270V360 4200 DZ FEW004 SCT007 BKN015CB 14/13 Q1010
View NOTAMs / SUP AIP / TFR affecting this airport [VIEW]
Communications frequencies: [VIEW]

Runways:

Airport contact information

Address: Netherlands

Satellite view of EHQW